LFTW/FNI METAR and TAF weather

Enter ICAO airport designator
Station Type Date Time Source
LFTW METAR 2022/10/01 07:00 UTC NOAA

LFTW 010700Z AUTO 25003KT 220V280 CAVOK 12/08 Q1020 NOSIG


Station Type Date Time Source
LFTW Decoded METAR 2022/10/01 07:00 UTC NOAA

Nimes / Garons, France (LFTW) 43-45N 004-25E 96M
Oct 01, 2022 - 03:00 AM EDT / 2022.10.01 0700 UTC
Wind: from the WSW (250 degrees) at 3 MPH (3 KT) (direction variable):0
Visibility: greater than 7 mile(s):0
Temperature: 53 F (12 C)
Dew Point: 46 F (8 C)
Relative Humidity: 76%
Pressure (altimeter): 30.12 in. Hg (1020 hPa)
ob: LFTW 010700Z AUTO 25003KT 220V280 CAVOK 12/08 Q1020 NOSIG
cycle: 7

Station Type Date Time Source
LFTW TAF 2022/10/01 03:21 UTC NOAA

TAF LFTW 010200Z 0103/0203 VRB03KT CAVOK
BECMG 0114/0116 27010KT

Example: see airport list